sensor_id;sensor_type;location;lat;lon;timestamp;pressure;altitude;pressure_sealevel;temperature;humidity
80504;BME280;69825;51.190;6.808;2023-05-29T00:01:49;101778.44;;;25.30;40.00
80504;BME280;69825;51.190;6.808;2023-05-29T00:04:15;101776.09;;;25.33;40.49
80504;BME280;69825;51.190;6.808;2023-05-29T00:06:40;101782.69;;;25.32;40.56
80504;BME280;69825;51.190;6.808;2023-05-29T00:09:06;101777.16;;;25.32;40.63
80504;BME280;69825;51.190;6.808;2023-05-29T00:11:31;101782.50;;;25.34;40.36
80504;BME280;69825;51.190;6.808;2023-05-29T00:13:57;101787.34;;;25.32;40.42
80504;BME280;69825;51.190;6.808;2023-05-29T00:16:23;101780.78;;;25.33;40.31
80504;BME280;69825;51.190;6.808;2023-05-29T00:18:49;101784.41;;;25.33;40.44
80504;BME280;69825;51.190;6.808;2023-05-29T00:21:14;101786.53;;;25.31;40.58
80504;BME280;69825;51.190;6.808;2023-05-29T00:23:41;101782.69;;;25.32;40.52
80504;BME280;69825;51.190;6.808;2023-05-29T00:26:07;101786.94;;;25.28;40.54
80504;BME280;69825;51.190;6.808;2023-05-29T00:28:32;101785.44;;;25.32;40.72
80504;BME280;69825;51.190;6.808;2023-05-29T00:30:58;101781.00;;;25.31;40.84
80504;BME280;69825;51.190;6.808;2023-05-29T00:33:23;101781.56;;;25.20;40.95
80504;BME280;69825;51.190;6.808;2023-05-29T00:35:48;101794.81;;;25.31;40.55
80504;BME280;69825;51.190;6.808;2023-05-29T00:38:14;101789.91;;;25.27;40.72
80504;BME280;69825;51.190;6.808;2023-05-29T00:40:40;101797.59;;;25.31;40.57
80504;BME280;69825;51.190;6.808;2023-05-29T00:43:05;101797.59;;;25.31;40.74
80504;BME280;69825;51.190;6.808;2023-05-29T00:45:30;101803.13;;;25.31;40.46
80504;BME280;69825;51.190;6.808;2023-05-29T00:47:57;101796.03;;;25.22;40.62
80504;BME280;69825;51.190;6.808;2023-05-29T00:50:23;101801.41;;;25.30;40.81
80504;BME280;69825;51.190;6.808;2023-05-29T00:52:49;101806.94;;;25.30;40.81
80504;BME280;69825;51.190;6.808;2023-05-29T00:55:15;101798.84;;;25.29;40.70
80504;BME280;69825;51.190;6.808;2023-05-29T00:57:41;101810.75;;;25.29;40.88
80504;BME280;69825;51.190;6.808;2023-05-29T01:00:06;101815.41;;;25.29;40.55
80504;BME280;69825;51.190;6.808;2023-05-29T01:02:36;101816.28;;;25.29;40.70
80504;BME280;69825;51.190;6.808;2023-05-29T01:05:01;101822.66;;;25.30;40.73
80504;BME280;69825;51.190;6.808;2023-05-29T01:07:26;101816.66;;;25.26;40.53
80504;BME280;69825;51.190;6.808;2023-05-29T01:09:52;101821.34;;;25.26;40.85
80504;BME280;69825;51.190;6.808;2023-05-29T01:18:07;101827.97;;;25.31;40.55
80504;BME280;69825;51.190;6.808;2023-05-29T01:29:07;101835.41;;;25.31;40.51
80504;BME280;69825;51.190;6.808;2023-05-29T01:31:34;101814.53;;;25.22;40.84
80504;BME280;69825;51.190;6.808;2023-05-29T01:34:01;101834.28;;;25.25;40.68
80504;BME280;69825;51.190;6.808;2023-05-29T01:36:27;101834.09;;;25.27;40.89
80504;BME280;69825;51.190;6.808;2023-05-29T01:38:55;101844.28;;;25.26;40.69
80504;BME280;69825;51.190;6.808;2023-05-29T01:41:21;101842.59;;;25.25;40.66
80504;BME280;69825;51.190;6.808;2023-05-29T01:43:48;101845.16;;;25.27;41.03
80504;BME280;69825;51.190;6.808;2023-05-29T01:46:15;101842.59;;;25.25;40.97
80504;BME280;69825;51.190;6.808;2023-05-29T01:48:42;101850.25;;;25.23;40.89
80504;BME280;69825;51.190;6.808;2023-05-29T01:51:09;101845.53;;;25.17;41.01
80504;BME280;69825;51.190;6.808;2023-05-29T01:53:36;101866.41;;;25.26;40.69
80504;BME280;69825;51.190;6.808;2023-05-29T01:56:02;101871.28;;;25.24;40.80
80504;BME280;69825;51.190;6.808;2023-05-29T01:58:29;101871.28;;;25.24;40.70
80504;BME280;69825;51.190;6.808;2023-05-29T02:00:55;101871.28;;;25.24;40.82
80504;BME280;69825;51.190;6.808;2023-05-29T02:03:21;101882.34;;;25.24;40.97
80504;BME280;69825;51.190;6.808;2023-05-29T02:05:47;101887.88;;;25.24;40.63
80504;BME280;69825;51.190;6.808;2023-05-29T02:08:12;101880.81;;;25.22;40.82
80504;BME280;69825;51.190;6.808;2023-05-29T02:10:37;101870.16;;;25.18;41.40
80504;BME280;69825;51.190;6.808;2023-05-29T02:13:03;101874.44;;;25.21;41.07
80504;BME280;69825;51.190;6.808;2023-05-29T02:15:28;101879.59;;;25.24;40.88
80504;BME280;69825;51.190;6.808;2023-05-29T02:17:53;101877.88;;;25.23;40.97
80504;BME280;69825;51.190;6.808;2023-05-29T02:20:19;101871.50;;;25.23;40.74
80504;BME280;69825;51.190;6.808;2023-05-29T02:22:44;101867.63;;;25.17;40.66
80504;BME280;69825;51.190;6.808;2023-05-29T02:25:10;101872.06;;;25.18;40.82
80504;BME280;69825;51.190;6.808;2023-05-29T02:27:36;101881.69;;;25.22;40.90
80504;BME280;69825;51.190;6.808;2023-05-29T02:30:01;101881.88;;;25.21;40.79
80504;BME280;69825;51.190;6.808;2023-05-29T02:32:27;101877.41;;;25.19;40.87
80504;BME280;69825;51.190;6.808;2023-05-29T02:34:53;101882.03;;;25.12;41.19
80504;BME280;69825;51.190;6.808;2023-05-29T02:37:19;101882.94;;;25.19;41.02
80504;BME280;69825;51.190;6.808;2023-05-29T02:39:44;101889.31;;;25.20;40.80
80504;BME280;69825;51.190;6.808;2023-05-29T02:42:10;101883.56;;;25.15;41.17
80504;BME280;69825;51.190;6.808;2023-05-29T02:44:35;101887.34;;;25.14;40.96
80504;BME280;69825;51.190;6.808;2023-05-29T02:47:00;101897.38;;;25.15;41.01
80504;BME280;69825;51.190;6.808;2023-05-29T02:49:26;101893.94;;;25.13;41.21
80504;BME280;69825;51.190;6.808;2023-05-29T02:51:51;101898.66;;;25.19;41.27
80504;BME280;69825;51.190;6.808;2023-05-29T02:54:21;101898.66;;;25.19;40.91
80504;BME280;69825;51.190;6.808;2023-05-29T02:56:47;101891.84;;;25.15;40.88
80504;BME280;69825;51.190;6.808;2023-05-29T02:59:12;101889.28;;;25.13;40.92
80504;BME280;69825;51.190;6.808;2023-05-29T03:01:37;101896.94;;;25.18;41.05
80504;BME280;69825;51.190;6.808;2023-05-29T03:04:03;101898.03;;;25.17;40.95
80504;BME280;69825;51.190;6.808;2023-05-29T03:06:28;101895.47;;;25.15;41.24
80504;BME280;69825;51.190;6.808;2023-05-29T03:08:54;101900.78;;;25.17;41.27
80504;BME280;69825;51.190;6.808;2023-05-29T03:11:19;101890.97;;;25.14;41.18
80504;BME280;69825;51.190;6.808;2023-05-29T03:13:46;101896.13;;;25.17;41.00
80504;BME280;69825;51.190;6.808;2023-05-29T03:16:12;101900.31;;;25.13;41.26
80504;BME280;69825;51.190;6.808;2023-05-29T03:18:38;101900.13;;;25.15;41.21
80504;BME280;69825;51.190;6.808;2023-05-29T03:21:04;101895.66;;;25.14;41.43
80504;BME280;69825;51.190;6.808;2023-05-29T03:23:29;101902.88;;;25.15;40.99
80504;BME280;69825;51.190;6.808;2023-05-29T03:25:55;101899.47;;;25.13;41.13
80504;BME280;69825;51.190;6.808;2023-05-29T03:28:20;101901.16;;;25.14;41.14
80504;BME280;69825;51.190;6.808;2023-05-29T03:30:46;101906.69;;;25.14;40.99
80504;BME280;69825;51.190;6.808;2023-05-29T03:33:11;101898.59;;;25.12;41.35
80504;BME280;69825;51.190;6.808;2023-05-29T03:35:36;101874.72;;;24.98;41.27
80504;BME280;69825;51.190;6.808;2023-05-29T03:38:02;101906.69;;;25.14;41.11
80504;BME280;69825;51.190;6.808;2023-05-29T03:40:27;101897.56;;;25.13;41.36
80504;BME280;69825;51.190;6.808;2023-05-29T03:42:52;101895.66;;;25.14;41.22
80504;BME280;69825;51.190;6.808;2023-05-29T03:45:18;101901.16;;;25.14;40.97
80504;BME280;69825;51.190;6.808;2023-05-29T03:47:43;101894.34;;;25.10;41.02
80504;BME280;69825;51.190;6.808;2023-05-29T03:50:08;101898.59;;;25.12;41.36
80504;BME280;69825;51.190;6.808;2023-05-29T03:52:34;101904.13;;;25.12;41.03
80504;BME280;69825;51.190;6.808;2023-05-29T03:55:02;101905.41;;;25.10;41.37
80504;BME280;69825;51.190;6.808;2023-05-29T03:57:27;101905.41;;;25.10;41.32
80504;BME280;69825;51.190;6.808;2023-05-29T03:59:52;101900.28;;;25.07;41.18
80504;BME280;69825;51.190;6.808;2023-05-29T04:02:18;101915.41;;;25.11;41.08
80504;BME280;69825;51.190;6.808;2023-05-29T04:04:43;101913.47;;;25.11;41.07
80504;BME280;69825;51.190;6.808;2023-05-29T04:07:08;101916.47;;;25.10;41.06
80504;BME280;69825;51.190;6.808;2023-05-29T04:09:34;101926.44;;;25.11;41.35
80504;BME280;69825;51.190;6.808;2023-05-29T04:12:00;101913.84;;;25.02;41.38
80504;BME280;69825;51.190;6.808;2023-05-29T04:14:27;101911.75;;;25.04;41.24
80504;BME280;69825;51.190;6.808;2023-05-29T04:16:53;101932.16;;;25.09;41.42
80504;BME280;69825;51.190;6.808;2023-05-29T04:19:18;101931.31;;;25.09;41.31
80504;BME280;69825;51.190;6.808;2023-05-29T04:21:44;101937.03;;;25.07;41.10
80504;BME280;69825;51.190;6.808;2023-05-29T04:24:09;101943.22;;;25.09;41.09
80504;BME280;69825;51.190;6.808;2023-05-29T04:26:36;101939.59;;;25.09;41.40
80504;BME280;69825;51.190;6.808;2023-05-29T04:29:06;101940.66;;;25.08;41.03
80504;BME280;69825;51.190;6.808;2023-05-29T04:31:31;101923.13;;;24.94;41.08
80504;BME280;69825;51.190;6.808;2023-05-29T04:33:57;101946.19;;;25.08;41.34
80504;BME280;69825;51.190;6.808;2023-05-29T04:36:23;101932.56;;;25.06;41.13
80504;BME280;69825;51.190;6.808;2023-05-29T04:38:51;101939.78;;;25.07;41.24
80504;BME280;69825;51.190;6.808;2023-05-29T04:41:16;101949.13;;;25.06;41.50
80504;BME280;69825;51.190;6.808;2023-05-29T04:43:41;101947.22;;;25.07;41.29
80504;BME280;69825;51.190;6.808;2023-05-29T04:46:07;101952.75;;;25.07;41.34
80504;BME280;69825;51.190;6.808;2023-05-29T04:48:38;101935.25;;;25.00;41.43
80504;BME280;69825;51.190;6.808;2023-05-29T04:51:06;101948.28;;;25.06;41.28
80504;BME280;69825;51.190;6.808;2023-05-29T04:53:31;101946.13;;;25.01;41.23
80504;BME280;69825;51.190;6.808;2023-05-29T04:55:57;101952.94;;;25.05;41.35
80504;BME280;69825;51.190;6.808;2023-05-29T04:58:25;101933.78;;;24.97;41.64
80504;BME280;69825;51.190;6.808;2023-05-29T05:00:50;101951.03;;;25.06;41.43
80504;BME280;69825;51.190;6.808;2023-05-29T05:03:16;101954.22;;;25.03;41.50
80504;BME280;69825;51.190;6.808;2023-05-29T05:05:42;101962.94;;;25.06;41.32
80504;BME280;69825;51.190;6.808;2023-05-29T05:08:09;101961.66;;;25.02;41.41
80504;BME280;69825;51.190;6.808;2023-05-29T05:10:35;101955.00;;;24.97;41.36
80504;BME280;69825;51.190;6.808;2023-05-29T05:13:00;101969.75;;;25.04;41.16
80504;BME280;69825;51.190;6.808;2023-05-29T05:15:27;101966.13;;;25.03;41.37
80504;BME280;69825;51.190;6.808;2023-05-29T05:17:53;101971.41;;;25.05;41.42
80504;BME280;69825;51.190;6.808;2023-05-29T05:20:18;101975.03;;;25.05;41.54
80504;BME280;69825;51.190;6.808;2023-05-29T05:22:44;101969.06;;;25.02;41.46
80504;BME280;69825;51.190;6.808;2023-05-29T05:25:09;101964.34;;;24.96;41.23
80504;BME280;69825;51.190;6.808;2023-05-29T05:27:35;101976.94;;;25.05;41.55
80504;BME280;69825;51.190;6.808;2023-05-29T05:30:02;101972.03;;;25.00;41.35
80504;BME280;69825;51.190;6.808;2023-05-29T05:32:27;101975.25;;;25.04;41.44
80504;BME280;69825;51.190;6.808;2023-05-29T05:34:53;101979.94;;;25.03;41.18
80504;BME280;69825;51.190;6.808;2023-05-29T05:37:18;101982.69;;;25.03;41.32
80504;BME280;69825;51.190;6.808;2023-05-29T05:39:43;101990.13;;;25.03;41.19
80504;BME280;69825;51.190;6.808;2023-05-29T05:42:09;101986.50;;;25.02;41.37
80504;BME280;69825;51.190;6.808;2023-05-29T05:44:34;101970.72;;;24.96;41.38
80504;BME280;69825;51.190;6.808;2023-05-29T05:46:59;101973.75;;;25.01;41.30
80504;BME280;69825;51.190;6.808;2023-05-29T05:49:25;101972.50;;;25.04;41.58
80504;BME280;69825;51.190;6.808;2023-05-29T05:51:50;101963.06;;;24.98;41.30
80504;BME280;69825;51.190;6.808;2023-05-29T05:54:16;101972.50;;;25.04;41.38
80504;BME280;69825;51.190;6.808;2023-05-29T05:56:41;101964.97;;;24.98;41.35
80504;BME280;69825;51.190;6.808;2023-05-29T05:59:06;101968.88;;;25.03;41.30
80504;BME280;69825;51.190;6.808;2023-05-29T06:01:32;101969.47;;;24.99;41.19
80504;BME280;69825;51.190;6.808;2023-05-29T06:03:58;101970.78;;;25.03;41.36
80504;BME280;69825;51.190;6.808;2023-05-29T06:06:23;101964.72;;;24.93;41.43
80504;BME280;69825;51.190;6.808;2023-05-29T06:08:49;101979.06;;;25.03;41.49
80504;BME280;69825;51.190;6.808;2023-05-29T06:11:14;101984.59;;;25.03;41.32
80504;BME280;69825;51.190;6.808;2023-05-29T06:13:40;101987.34;;;25.03;41.60
80504;BME280;69825;51.190;6.808;2023-05-29T06:16:05;101993.75;;;25.03;41.42
80504;BME280;69825;51.190;6.808;2023-05-29T06:18:31;101985.41;;;24.97;41.34
80504;BME280;69825;51.190;6.808;2023-05-29T06:20:56;101995.16;;;24.99;41.52
80504;BME280;69825;51.190;6.808;2023-05-29T06:23:22;101987.34;;;25.03;41.53
80504;BME280;69825;51.190;6.808;2023-05-29T06:25:47;101992.03;;;25.02;41.60
80504;BME280;69825;51.190;6.808;2023-05-29T06:28:13;101991.16;;;25.02;41.49
80504;BME280;69825;51.190;6.808;2023-05-29T06:30:39;101992.03;;;25.02;41.23
80504;BME280;69825;51.190;6.808;2023-05-29T06:33:04;101990.13;;;25.03;41.38
80504;BME280;69825;51.190;6.808;2023-05-29T06:35:30;101985.41;;;24.97;41.42
80504;BME280;69825;51.190;6.808;2023-05-29T06:37:56;101984.31;;;24.98;41.32
80504;BME280;69825;51.190;6.808;2023-05-29T06:40:21;101998.41;;;25.03;41.41
80504;BME280;69825;51.190;6.808;2023-05-29T06:42:47;101981.31;;;24.93;41.83
80504;BME280;69825;51.190;6.808;2023-05-29T06:45:12;102003.94;;;25.03;41.33
80504;BME280;69825;51.190;6.808;2023-05-29T06:47:43;102000.50;;;25.01;41.54
80504;BME280;69825;51.190;6.808;2023-05-29T06:50:08;102003.94;;;25.03;41.56
80504;BME280;69825;51.190;6.808;2023-05-29T06:52:34;102003.94;;;25.03;41.42
80504;BME280;69825;51.190;6.808;2023-05-29T06:54:59;102001.16;;;25.03;41.44
80504;BME280;69825;51.190;6.808;2023-05-29T06:57:26;102003.94;;;25.03;41.38
80504;BME280;69825;51.190;6.808;2023-05-29T06:59:51;101997.06;;;24.99;41.44
80504;BME280;69825;51.190;6.808;2023-05-29T07:02:17;102001.34;;;25.01;41.58
80504;BME280;69825;51.190;6.808;2023-05-29T07:04:42;101994.97;;;25.01;41.29
80504;BME280;69825;51.190;6.808;2023-05-29T07:07:07;102005.66;;;25.04;41.13
80504;BME280;69825;51.190;6.808;2023-05-29T07:09:33;101999.25;;;25.03;42.05
80504;BME280;69825;51.190;6.808;2023-05-29T07:11:58;101992.88;;;25.03;41.42
80504;BME280;69825;51.190;6.808;2023-05-29T07:14:23;101978.78;;;24.98;41.47
80504;BME280;69825;51.190;6.808;2023-05-29T07:16:49;101987.34;;;25.03;41.35
80504;BME280;69825;51.190;6.808;2023-05-29T07:19:15;101987.34;;;25.03;41.21
80504;BME280;69825;51.190;6.808;2023-05-29T07:21:41;101995.41;;;25.04;41.62
80504;BME280;69825;51.190;6.808;2023-05-29T07:24:06;101987.34;;;25.03;41.19
80504;BME280;69825;51.190;6.808;2023-05-29T07:26:32;101991.16;;;25.02;41.34
80504;BME280;69825;51.190;6.808;2023-05-29T07:28:57;101999.25;;;25.03;41.17
80504;BME280;69825;51.190;6.808;2023-05-29T07:31:23;101992.88;;;25.03;41.42
80504;BME280;69825;51.190;6.808;2023-05-29T07:33:48;102011.16;;;25.04;41.21
80504;BME280;69825;51.190;6.808;2023-05-29T07:36:15;102017.31;;;25.06;41.36
80504;BME280;69825;51.190;6.808;2023-05-29T07:38:42;102018.38;;;25.05;41.41
80504;BME280;69825;51.190;6.808;2023-05-29T07:41:07;102008.78;;;25.01;41.67
80504;BME280;69825;51.190;6.808;2023-05-29T07:43:32;102028.38;;;25.06;41.36
80504;BME280;69825;51.190;6.808;2023-05-29T07:45:58;102021.81;;;25.07;41.22
80504;BME280;69825;51.190;6.808;2023-05-29T07:48:23;102022.66;;;25.07;41.48
80504;BME280;69825;51.190;6.808;2023-05-29T07:50:48;102021.41;;;25.10;41.13
80504;BME280;69825;51.190;6.808;2023-05-29T07:53:14;102024.81;;;25.12;41.12
80504;BME280;69825;51.190;6.808;2023-05-29T07:55:39;102036.72;;;25.12;41.51
80504;BME280;69825;51.190;6.808;2023-05-29T07:58:05;102028.25;;;25.14;41.34
80504;BME280;69825;51.190;6.808;2023-05-29T08:00:30;102033.56;;;25.15;40.91
80504;BME280;69825;51.190;6.808;2023-05-29T08:02:55;102031.00;;;25.14;41.43
80504;BME280;69825;51.190;6.808;2023-05-29T08:05:22;102027.81;;;25.10;41.44
80504;BME280;69825;51.190;6.808;2023-05-29T08:07:47;102039.75;;;25.17;41.47
80504;BME280;69825;51.190;6.808;2023-05-29T08:10:13;102027.38;;;25.13;41.38
80504;BME280;69825;51.190;6.808;2023-05-29T08:12:39;102031.25;;;25.19;41.08
80504;BME280;69825;51.190;6.808;2023-05-29T08:15:05;102038.50;;;25.20;41.01
80504;BME280;69825;51.190;6.808;2023-05-29T08:17:30;102029.53;;;25.18;41.29
80504;BME280;69825;51.190;6.808;2023-05-29T08:19:56;102034.69;;;25.21;41.19
80504;BME280;69825;51.190;6.808;2023-05-29T08:22:27;102038.06;;;25.16;41.38
80504;BME280;69825;51.190;6.808;2023-05-29T08:24:53;102046.13;;;25.18;41.31
80504;BME280;69825;51.190;6.808;2023-05-29T08:27:18;102055.13;;;25.27;41.29
80504;BME280;69825;51.190;6.808;2023-05-29T08:29:43;102047.69;;;25.27;40.95
80504;BME280;69825;51.190;6.808;2023-05-29T08:32:09;102047.69;;;25.27;41.29
80504;BME280;69825;51.190;6.808;2023-05-29T08:34:35;102041.50;;;25.25;40.99
80504;BME280;69825;51.190;6.808;2023-05-29T08:37:00;102043.88;;;25.28;40.89
80504;BME280;69825;51.190;6.808;2023-05-29T08:39:25;102045.41;;;25.31;40.82
80504;BME280;69825;51.190;6.808;2023-05-29T08:42:25;102045.78;;;25.28;41.05
80504;BME280;69825;51.190;6.808;2023-05-29T08:44:56;102040.31;;;25.34;40.83
80504;BME280;69825;51.190;6.808;2023-05-29T08:47:26;102043.09;;;25.34;41.00
80504;BME280;69825;51.190;6.808;2023-05-29T08:49:53;102046.72;;;25.35;40.96
80504;BME280;69825;51.190;6.808;2023-05-29T08:52:21;102046.91;;;25.33;40.87
80504;BME280;69825;51.190;6.808;2023-05-29T08:54:47;102056.91;;;25.34;41.22
80504;BME280;69825;51.190;6.808;2023-05-29T08:57:13;102035.22;;;25.31;40.91
80504;BME280;69825;51.190;6.808;2023-05-29T08:59:41;102043.09;;;25.34;41.37
80504;BME280;69825;51.190;6.808;2023-05-29T09:02:07;102032.66;;;25.30;40.86
80504;BME280;69825;51.190;6.808;2023-05-29T09:04:32;102048.00;;;25.39;40.94
80504;BME280;69825;51.190;6.808;2023-05-29T09:06:59;102042.03;;;25.35;40.93
80504;BME280;69825;51.190;6.808;2023-05-29T09:09:25;102040.56;;;25.39;40.89
80504;BME280;69825;51.190;6.808;2023-05-29T09:11:52;102046.75;;;25.41;40.96
80504;BME280;69825;51.190;6.808;2023-05-29T09:14:32;102040.56;;;25.39;41.12
80504;BME280;69825;51.190;6.808;2023-05-29T09:16:59;102046.38;;;25.44;40.80
80504;BME280;69825;51.190;6.808;2023-05-29T09:19:25;102043.63;;;25.44;40.78
80504;BME280;69825;51.190;6.808;2023-05-29T09:21:51;102042.09;;;25.42;40.72
80504;BME280;69825;51.190;6.808;2023-05-29T09:24:16;102050.19;;;25.43;41.00
80504;BME280;69825;51.190;6.808;2023-05-29T09:26:51;102046.38;;;25.44;40.92
80504;BME280;69825;51.190;6.808;2023-05-29T09:29:16;102050.44;;;25.48;40.89
80504;BME280;69825;51.190;6.808;2023-05-29T09:31:48;102048.72;;;25.47;40.91
80504;BME280;69825;51.190;6.808;2023-05-29T09:34:14;102066.81;;;25.50;41.27
80504;BME280;69825;51.190;6.808;2023-05-29T09:36:40;102051.50;;;25.47;41.12
80504;BME280;69825;51.190;6.808;2023-05-29T09:39:06;102058.72;;;25.48;40.84
80504;BME280;69825;51.190;6.808;2023-05-29T09:41:43;102051.50;;;25.47;41.00
80504;BME280;69825;51.190;6.808;2023-05-29T09:44:13;102041.03;;;25.43;41.16
80504;BME280;69825;51.190;6.808;2023-05-29T09:46:42;102049.34;;;25.43;40.79
80504;BME280;69825;51.190;6.808;2023-05-29T09:49:13;102060.44;;;25.49;40.89
80504;BME280;69825;51.190;6.808;2023-05-29T09:51:39;102061.75;;;25.53;40.73
80504;BME280;69825;51.190;6.808;2023-05-29T09:55:02;102054.91;;;25.49;40.73
80504;BME280;69825;51.190;6.808;2023-05-29T09:57:28;102058.97;;;25.53;40.50
80504;BME280;69825;51.190;6.808;2023-05-29T09:59:54;102050.50;;;25.55;41.03
80504;BME280;69825;51.190;6.808;2023-05-29T10:02:20;102050.25;;;25.50;40.91
80504;BME280;69825;51.190;6.808;2023-05-29T10:04:48;102024.00;;;25.39;40.60
80504;BME280;69825;51.190;6.808;2023-05-29T10:07:26;102066.50;;;25.60;40.92
80504;BME280;69825;51.190;6.808;2023-05-29T10:09:59;102049.91;;;25.60;40.58
80504;BME280;69825;51.190;6.808;2023-05-29T10:12:27;102049.53;;;25.63;40.70
80504;BME280;69825;51.190;6.808;2023-05-29T10:14:56;102047.53;;;25.56;40.43
80504;BME280;69825;51.190;6.808;2023-05-29T10:17:25;102049.28;;;25.58;40.32
80504;BME280;69825;51.190;6.808;2023-05-29T10:19:53;102056.34;;;25.67;40.96
80504;BME280;69825;51.190;6.808;2023-05-29T10:22:20;102040.47;;;25.54;40.56
80504;BME280;69825;51.190;6.808;2023-05-29T10:24:50;102053.38;;;25.68;40.58
80504;BME280;69825;51.190;6.808;2023-05-29T10:27:16;102056.81;;;25.70;40.49
80504;BME280;69825;51.190;6.808;2023-05-29T10:29:54;102048.28;;;25.65;40.56
80504;BME280;69825;51.190;6.808;2023-05-29T10:32:32;102054.72;;;25.72;40.83
80504;BME280;69825;51.190;6.808;2023-05-29T10:35:14;102047.91;;;25.75;40.42
80504;BME280;69825;51.190;6.808;2023-05-29T10:40:12;102033.38;;;25.66;40.48
80504;BME280;69825;51.190;6.808;2023-05-29T10:53:00;102037.34;;;25.85;40.87
80504;BME280;69825;51.190;6.808;2023-05-29T10:55:34;102028.78;;;25.80;40.49
80504;BME280;69825;51.190;6.808;2023-05-29T10:58:07;102029.63;;;25.80;41.00
80504;BME280;69825;51.190;6.808;2023-05-29T11:00:34;102042.06;;;25.91;40.53
80504;BME280;69825;51.190;6.808;2023-05-29T11:03:07;102028.00;;;25.86;40.81
80504;BME280;69825;51.190;6.808;2023-05-29T11:05:32;102036.97;;;25.94;40.54
80504;BME280;69825;51.190;6.808;2023-05-29T11:08:01;102034.19;;;25.94;40.73
80504;BME280;69825;51.190;6.808;2023-05-29T11:13:36;102016.13;;;25.92;40.38
80504;BME280;69825;51.190;6.808;2023-05-29T11:16:09;102030.59;;;26.01;40.44
80504;BME280;69825;51.190;6.808;2023-05-29T11:18:42;102025.94;;;26.01;40.38
80504;BME280;69825;51.190;6.808;2023-05-29T11:23:58;102018.53;;;26.08;40.37
80504;BME280;69825;51.190;6.808;2023-05-29T11:26:27;102022.81;;;26.11;40.63
80504;BME280;69825;51.190;6.808;2023-05-29T11:28:52;102018.13;;;26.11;40.40
80504;BME280;69825;51.190;6.808;2023-05-29T11:31:19;102017.06;;;26.12;40.24
80504;BME280;69825;51.190;6.808;2023-05-29T11:33:49;102021.56;;;26.13;40.25
80504;BME280;69825;51.190;6.808;2023-05-29T11:36:16;102018.34;;;26.16;40.45
80504;BME280;69825;51.190;6.808;2023-05-29T11:38:42;102018.34;;;26.16;40.57
80504;BME280;69825;51.190;6.808;2023-05-29T11:41:08;102007.72;;;26.13;40.46
80504;BME280;69825;51.190;6.808;2023-05-29T11:43:34;102005.19;;;26.18;40.33
80504;BME280;69825;51.190;6.808;2023-05-29T11:46:00;102006.91;;;26.19;40.62
80504;BME280;69825;51.190;6.808;2023-05-29T11:48:25;102002.63;;;26.17;40.40
80504;BME280;69825;51.190;6.808;2023-05-29T11:50:51;102016.47;;;26.23;40.59
80504;BME280;69825;51.190;6.808;2023-05-29T11:53:16;101996.22;;;26.16;40.52
80504;BME280;69825;51.190;6.808;2023-05-29T11:55:41;102014.19;;;26.27;40.24
80504;BME280;69825;51.190;6.808;2023-05-29T11:58:07;102000.06;;;26.22;40.21
80504;BME280;69825;51.190;6.808;2023-05-29T12:00:38;101997.09;;;26.23;40.61
80504;BME280;69825;51.190;6.808;2023-05-29T12:03:05;102005.25;;;26.31;40.41
80504;BME280;69825;51.190;6.808;2023-05-29T12:05:45;102006.53;;;26.29;40.63
80504;BME280;69825;51.190;6.808;2023-05-29T12:08:10;102009.50;;;26.34;39.93
80504;BME280;69825;51.190;6.808;2023-05-29T12:10:36;101992.47;;;26.30;40.39
80504;BME280;69825;51.190;6.808;2023-05-29T12:13:01;101999.31;;;26.34;40.50
80504;BME280;69825;51.190;6.808;2023-05-29T12:15:27;102010.81;;;26.38;40.17
80504;BME280;69825;51.190;6.808;2023-05-29T12:17:53;102014.44;;;26.39;40.23
80504;BME280;69825;51.190;6.808;2023-05-29T12:20:22;102030.84;;;26.40;40.15
80504;BME280;69825;51.190;6.808;2023-05-29T12:22:48;102015.94;;;26.41;40.23
80504;BME280;69825;51.190;6.808;2023-05-29T12:25:20;102027.00;;;26.41;40.43
80504;BME280;69825;51.190;6.808;2023-05-29T12:27:47;102014.66;;;26.44;39.88
80504;BME280;69825;51.190;6.808;2023-05-29T12:30:14;102016.38;;;26.45;40.38
80504;BME280;69825;51.190;6.808;2023-05-29T12:32:47;102009.56;;;26.41;40.00
80504;BME280;69825;51.190;6.808;2023-05-29T12:35:21;102018.09;;;26.46;39.88
80504;BME280;69825;51.190;6.808;2023-05-29T12:37:54;102003.38;;;26.39;39.92
80504;BME280;69825;51.190;6.808;2023-05-29T12:40:23;102016.19;;;26.53;40.26
80504;BME280;69825;51.190;6.808;2023-05-29T12:43:08;101998.09;;;26.57;39.79
80504;BME280;69825;51.190;6.808;2023-05-29T12:45:36;102017.69;;;26.62;39.88
80504;BME280;69825;51.190;6.808;2023-05-29T12:48:04;102023.66;;;26.59;39.44
80504;BME280;69825;51.190;6.808;2023-05-29T12:50:40;102014.28;;;26.53;40.11
80504;BME280;69825;51.190;6.808;2023-05-29T12:53:10;102014.72;;;26.57;40.05
80504;BME280;69825;51.190;6.808;2023-05-29T12:55:41;102020.25;;;26.57;40.06
80504;BME280;69825;51.190;6.808;2023-05-29T12:58:09;102011.94;;;26.57;39.48
80504;BME280;69825;51.190;6.808;2023-05-29T13:00:36;102003.44;;;26.58;39.57
80504;BME280;69825;51.190;6.808;2023-05-29T13:03:02;101999.81;;;26.58;39.48
80504;BME280;69825;51.190;6.808;2023-05-29T13:05:27;101997.69;;;26.60;39.75
80504;BME280;69825;51.190;6.808;2023-05-29T13:07:53;101988.09;;;26.56;39.18
80504;BME280;69825;51.190;6.808;2023-05-29T13:10:19;101990.44;;;26.59;39.41
80504;BME280;69825;51.190;6.808;2023-05-29T13:12:45;102011.09;;;26.63;39.82
80504;BME280;69825;51.190;6.808;2023-05-29T13:15:12;102005.38;;;26.64;39.40
80504;BME280;69825;51.190;6.808;2023-05-29T13:17:38;102006.22;;;26.65;39.45
80504;BME280;69825;51.190;6.808;2023-05-29T13:20:08;102010.69;;;26.66;39.84
80504;BME280;69825;51.190;6.808;2023-05-29T13:22:35;102011.34;;;26.68;39.61